Terminal Aerodrome Forecast
Issued by NWS Wilmington, NC

Home | Current Version | Previous Version | Text Only | Print | Product List | Glossary On
Versions: 1 2 3 4 5 6 7 8 9 10 11 12 13 14
000
FTUS42 KILM 251720
TAFILM
TAF
KILM 251720Z 2518/2618 26004KT P6SM VCSH BKN035
      TEMPO 2518/2522 SCT035
     FM260000 20005KT P6SM VCTS BKN035CB
     FM260300 VRB03KT P6SM BKN025 PROB30 2603/2609 4SM -TSRA
      OVC015CB=

USA.gov is the U.S. government's official web portal to all federal, state and local government web resources and services.